sensor_id;sensor_type;location;lat;lon;timestamp;P1;durP1;ratioP1;P2;durP2;ratioP2
59790;SDS011;47431;51.640;5.554;2023-11-21T00:01:15;44.60;;;24.60;;
59790;SDS011;47431;51.640;5.554;2023-11-21T00:03:40;37.85;;;24.55;;
59790;SDS011;47431;51.640;5.554;2023-11-21T00:06:06;43.53;;;24.00;;
59790;SDS011;47431;51.640;5.554;2023-11-21T00:08:34;46.55;;;24.05;;
59790;SDS011;47431;51.640;5.554;2023-11-21T00:11:00;53.83;;;25.23;;
59790;SDS011;47431;51.640;5.554;2023-11-21T00:13:25;42.08;;;22.88;;
59790;SDS011;47431;51.640;5.554;2023-11-21T00:15:51;38.08;;;22.20;;
59790;SDS011;47431;51.640;5.554;2023-11-21T00:18:16;48.70;;;27.08;;
59790;SDS011;47431;51.640;5.554;2023-11-21T00:20:42;51.20;;;24.83;;
59790;SDS011;47431;51.640;5.554;2023-11-21T00:23:07;49.45;;;25.88;;
59790;SDS011;47431;51.640;5.554;2023-11-21T00:25:34;53.65;;;26.42;;
59790;SDS011;47431;51.640;5.554;2023-11-21T00:27:59;41.95;;;25.70;;
59790;SDS011;47431;51.640;5.554;2023-11-21T00:30:26;48.35;;;24.52;;
59790;SDS011;47431;51.640;5.554;2023-11-21T00:32:52;48.95;;;25.70;;
59790;SDS011;47431;51.640;5.554;2023-11-21T00:35:18;44.83;;;25.33;;
59790;SDS011;47431;51.640;5.554;2023-11-21T00:37:43;170.93;;;44.72;;
59790;SDS011;47431;51.640;5.554;2023-11-21T00:40:09;157.93;;;39.60;;
59790;SDS011;47431;51.640;5.554;2023-11-21T00:42:35;50.03;;;25.35;;
59790;SDS011;47431;51.640;5.554;2023-11-21T00:45:00;100.13;;;33.22;;
59790;SDS011;47431;51.640;5.554;2023-11-21T00:47:26;49.25;;;24.80;;
59790;SDS011;47431;51.640;5.554;2023-11-21T00:49:51;70.18;;;28.55;;
59790;SDS011;47431;51.640;5.554;2023-11-21T00:52:16;43.25;;;25.05;;
59790;SDS011;47431;51.640;5.554;2023-11-21T00:54:42;234.25;;;50.17;;
59790;SDS011;47431;51.640;5.554;2023-11-21T00:57:07;401.02;;;77.50;;
59790;SDS011;47431;51.640;5.554;2023-11-21T00:59:33;256.42;;;61.53;;
59790;SDS011;47431;51.640;5.554;2023-11-21T01:01:59;118.47;;;38.47;;
59790;SDS011;47431;51.640;5.554;2023-11-21T01:04:26;180.82;;;44.70;;
59790;SDS011;47431;51.640;5.554;2023-11-21T01:06:52;272.80;;;51.92;;
59790;SDS011;47431;51.640;5.554;2023-11-21T01:09:17;391.15;;;79.35;;
59790;SDS011;47431;51.640;5.554;2023-11-21T01:11:43;210.80;;;30.85;;
59790;SDS011;47431;51.640;5.554;2023-11-21T01:14:09;108.28;;;25.98;;
59790;SDS011;47431;51.640;5.554;2023-11-21T01:16:35;285.08;;;40.90;;
59790;SDS011;47431;51.640;5.554;2023-11-21T01:19:00;225.63;;;36.40;;
59790;SDS011;47431;51.640;5.554;2023-11-21T01:21:26;194.05;;;34.13;;
59790;SDS011;47431;51.640;5.554;2023-11-21T01:23:53;191.00;;;38.60;;
59790;SDS011;47431;51.640;5.554;2023-11-21T01:26:20;84.53;;;28.50;;
59790;SDS011;47431;51.640;5.554;2023-11-21T01:28:45;200.15;;;53.58;;
59790;SDS011;47431;51.640;5.554;2023-11-21T01:31:10;140.25;;;44.47;;
59790;SDS011;47431;51.640;5.554;2023-11-21T01:33:36;252.80;;;54.00;;
59790;SDS011;47431;51.640;5.554;2023-11-21T01:36:01;95.00;;;38.50;;
59790;SDS011;47431;51.640;5.554;2023-11-21T01:38:26;70.97;;;29.30;;
59790;SDS011;47431;51.640;5.554;2023-11-21T01:40:52;131.77;;;35.13;;
59790;SDS011;47431;51.640;5.554;2023-11-21T01:43:17;145.20;;;28.90;;
59790;SDS011;47431;51.640;5.554;2023-11-21T01:45:43;219.73;;;39.25;;
59790;SDS011;47431;51.640;5.554;2023-11-21T01:48:10;156.15;;;29.73;;
59790;SDS011;47431;51.640;5.554;2023-11-21T01:50:37;138.00;;;35.05;;
59790;SDS011;47431;51.640;5.554;2023-11-21T01:53:03;227.30;;;44.75;;
59790;SDS011;47431;51.640;5.554;2023-11-21T01:55:28;254.93;;;55.55;;
59790;SDS011;47431;51.640;5.554;2023-11-21T01:57:55;278.58;;;57.28;;
59790;SDS011;47431;51.640;5.554;2023-11-21T02:00:22;191.38;;;45.35;;
59790;SDS011;47431;51.640;5.554;2023-11-21T02:02:48;132.98;;;41.05;;
59790;SDS011;47431;51.640;5.554;2023-11-21T02:05:15;170.85;;;43.55;;
59790;SDS011;47431;51.640;5.554;2023-11-21T02:07:43;122.18;;;41.38;;
59790;SDS011;47431;51.640;5.554;2023-11-21T02:10:09;250.35;;;56.25;;
59790;SDS011;47431;51.640;5.554;2023-11-21T02:12:35;234.70;;;60.22;;
59790;SDS011;47431;51.640;5.554;2023-11-21T02:15:03;134.05;;;41.78;;
59790;SDS011;47431;51.640;5.554;2023-11-21T02:17:34;131.73;;;41.50;;
59790;SDS011;47431;51.640;5.554;2023-11-21T02:20:02;139.77;;;41.63;;
59790;SDS011;47431;51.640;5.554;2023-11-21T02:22:29;127.57;;;44.53;;
59790;SDS011;47431;51.640;5.554;2023-11-21T02:24:59;129.15;;;41.58;;
59790;SDS011;47431;51.640;5.554;2023-11-21T02:27:24;166.13;;;45.75;;
59790;SDS011;47431;51.640;5.554;2023-11-21T02:29:50;167.77;;;45.55;;
59790;SDS011;47431;51.640;5.554;2023-11-21T02:32:15;155.18;;;41.45;;
59790;SDS011;47431;51.640;5.554;2023-11-21T02:34:44;255.48;;;63.45;;
59790;SDS011;47431;51.640;5.554;2023-11-21T02:37:09;292.08;;;63.20;;
59790;SDS011;47431;51.640;5.554;2023-11-21T02:39:35;221.73;;;58.50;;
59790;SDS011;47431;51.640;5.554;2023-11-21T02:42:00;250.65;;;58.97;;
59790;SDS011;47431;51.640;5.554;2023-11-21T02:44:26;232.90;;;53.35;;
59790;SDS011;47431;51.640;5.554;2023-11-21T02:46:51;109.28;;;36.10;;
59790;SDS011;47431;51.640;5.554;2023-11-21T02:49:16;122.28;;;40.92;;
59790;SDS011;47431;51.640;5.554;2023-11-21T02:51:42;169.18;;;44.70;;
59790;SDS011;47431;51.640;5.554;2023-11-21T02:54:07;160.88;;;43.38;;
59790;SDS011;47431;51.640;5.554;2023-11-21T02:56:33;266.17;;;59.10;;
59790;SDS011;47431;51.640;5.554;2023-11-21T02:58:59;281.25;;;61.38;;
59790;SDS011;47431;51.640;5.554;2023-11-21T03:01:25;215.05;;;52.92;;
59790;SDS011;47431;51.640;5.554;2023-11-21T03:03:51;187.13;;;46.72;;
59790;SDS011;47431;51.640;5.554;2023-11-21T03:06:20;121.50;;;37.72;;
59790;SDS011;47431;51.640;5.554;2023-11-21T03:08:46;196.32;;;49.13;;
59790;SDS011;47431;51.640;5.554;2023-11-21T03:11:11;245.32;;;56.65;;
59790;SDS011;47431;51.640;5.554;2023-11-21T03:13:38;145.10;;;40.28;;
59790;SDS011;47431;51.640;5.554;2023-11-21T03:16:06;185.93;;;49.53;;
59790;SDS011;47431;51.640;5.554;2023-11-21T03:18:33;150.25;;;44.08;;
59790;SDS011;47431;51.640;5.554;2023-11-21T03:20:59;136.80;;;40.33;;
59790;SDS011;47431;51.640;5.554;2023-11-21T03:23:24;117.68;;;40.40;;
59790;SDS011;47431;51.640;5.554;2023-11-21T03:25:49;84.75;;;35.05;;
59790;SDS011;47431;51.640;5.554;2023-11-21T03:28:15;79.68;;;33.85;;
59790;SDS011;47431;51.640;5.554;2023-11-21T03:30:40;92.78;;;35.80;;
59790;SDS011;47431;51.640;5.554;2023-11-21T03:33:06;100.13;;;36.50;;
59790;SDS011;47431;51.640;5.554;2023-11-21T03:35:32;121.55;;;40.75;;
59790;SDS011;47431;51.640;5.554;2023-11-21T03:37:58;98.95;;;38.53;;
59790;SDS011;47431;51.640;5.554;2023-11-21T03:40:23;143.60;;;45.70;;
59790;SDS011;47431;51.640;5.554;2023-11-21T03:42:48;113.25;;;42.90;;
59790;SDS011;47431;51.640;5.554;2023-11-21T03:45:14;95.53;;;36.22;;
59790;SDS011;47431;51.640;5.554;2023-11-21T03:47:42;92.32;;;35.25;;
59790;SDS011;47431;51.640;5.554;2023-11-21T03:50:08;58.60;;;28.10;;
59790;SDS011;47431;51.640;5.554;2023-11-21T03:52:34;103.05;;;35.88;;
59790;SDS011;47431;51.640;5.554;2023-11-21T03:55:00;80.95;;;35.30;;
59790;SDS011;47431;51.640;5.554;2023-11-21T03:57:26;60.40;;;32.00;;
59790;SDS011;47431;51.640;5.554;2023-11-21T03:59:52;77.53;;;33.28;;
59790;SDS011;47431;51.640;5.554;2023-11-21T04:02:18;66.55;;;31.45;;
59790;SDS011;47431;51.640;5.554;2023-11-21T04:04:44;82.55;;;32.83;;
59790;SDS011;47431;51.640;5.554;2023-11-21T04:07:09;63.95;;;31.27;;
59790;SDS011;47431;51.640;5.554;2023-11-21T04:09:35;69.70;;;30.95;;
59790;SDS011;47431;51.640;5.554;2023-11-21T04:12:01;58.10;;;29.42;;
59790;SDS011;47431;51.640;5.554;2023-11-21T04:14:26;62.80;;;30.88;;
59790;SDS011;47431;51.640;5.554;2023-11-21T04:16:52;58.50;;;32.05;;
59790;SDS011;47431;51.640;5.554;2023-11-21T04:19:18;76.13;;;34.75;;
59790;SDS011;47431;51.640;5.554;2023-11-21T04:21:44;89.05;;;34.75;;
59790;SDS011;47431;51.640;5.554;2023-11-21T04:24:09;84.28;;;34.35;;
59790;SDS011;47431;51.640;5.554;2023-11-21T04:26:35;203.40;;;53.70;;
59790;SDS011;47431;51.640;5.554;2023-11-21T04:29:01;125.90;;;41.28;;
59790;SDS011;47431;51.640;5.554;2023-11-21T04:31:26;151.43;;;45.17;;
59790;SDS011;47431;51.640;5.554;2023-11-21T04:33:51;56.05;;;30.65;;
59790;SDS011;47431;51.640;5.554;2023-11-21T04:36:17;73.82;;;33.60;;
59790;SDS011;47431;51.640;5.554;2023-11-21T04:38:42;67.78;;;34.13;;
59790;SDS011;47431;51.640;5.554;2023-11-21T04:41:08;60.85;;;31.48;;
59790;SDS011;47431;51.640;5.554;2023-11-21T04:43:33;94.32;;;33.85;;
59790;SDS011;47431;51.640;5.554;2023-11-21T04:45:58;71.45;;;34.80;;
59790;SDS011;47431;51.640;5.554;2023-11-21T04:48:24;73.68;;;33.45;;
59790;SDS011;47431;51.640;5.554;2023-11-21T04:50:50;70.18;;;33.00;;
59790;SDS011;47431;51.640;5.554;2023-11-21T04:53:16;58.63;;;31.55;;
59790;SDS011;47431;51.640;5.554;2023-11-21T04:55:41;68.13;;;33.00;;
59790;SDS011;47431;51.640;5.554;2023-11-21T04:58:07;69.50;;;33.05;;
59790;SDS011;47431;51.640;5.554;2023-11-21T05:00:33;52.00;;;31.52;;
59790;SDS011;47431;51.640;5.554;2023-11-21T05:02:58;71.10;;;32.58;;
59790;SDS011;47431;51.640;5.554;2023-11-21T05:05:26;58.40;;;30.60;;
59790;SDS011;47431;51.640;5.554;2023-11-21T05:07:51;55.05;;;28.58;;
59790;SDS011;47431;51.640;5.554;2023-11-21T05:10:18;48.10;;;28.20;;
59790;SDS011;47431;51.640;5.554;2023-11-21T05:12:44;42.90;;;25.60;;
59790;SDS011;47431;51.640;5.554;2023-11-21T05:15:10;51.60;;;28.42;;
59790;SDS011;47431;51.640;5.554;2023-11-21T05:17:40;55.38;;;28.42;;
59790;SDS011;47431;51.640;5.554;2023-11-21T05:20:15;57.15;;;28.45;;
59790;SDS011;47431;51.640;5.554;2023-11-21T05:22:50;43.05;;;26.13;;
59790;SDS011;47431;51.640;5.554;2023-11-21T05:25:15;42.78;;;26.75;;
59790;SDS011;47431;51.640;5.554;2023-11-21T05:27:43;51.53;;;26.77;;
59790;SDS011;47431;51.640;5.554;2023-11-21T05:30:13;44.85;;;27.35;;
59790;SDS011;47431;51.640;5.554;2023-11-21T05:32:39;40.47;;;26.23;;
59790;SDS011;47431;51.640;5.554;2023-11-21T05:35:07;44.60;;;26.77;;
59790;SDS011;47431;51.640;5.554;2023-11-21T05:37:36;37.90;;;26.02;;
59790;SDS011;47431;51.640;5.554;2023-11-21T05:40:03;40.97;;;24.90;;
59790;SDS011;47431;51.640;5.554;2023-11-21T05:42:33;41.72;;;27.90;;
59790;SDS011;47431;51.640;5.554;2023-11-21T05:45:00;41.17;;;26.35;;
59790;SDS011;47431;51.640;5.554;2023-11-21T05:47:45;42.53;;;26.42;;
59790;SDS011;47431;51.640;5.554;2023-11-21T05:50:12;40.60;;;27.25;;
59790;SDS011;47431;51.640;5.554;2023-11-21T05:52:41;39.10;;;24.88;;
59790;SDS011;47431;51.640;5.554;2023-11-21T05:55:08;39.08;;;25.42;;
59790;SDS011;47431;51.640;5.554;2023-11-21T05:57:34;39.58;;;26.55;;
59790;SDS011;47431;51.640;5.554;2023-11-21T06:00:07;43.30;;;28.55;;
59790;SDS011;47431;51.640;5.554;2023-11-21T06:02:52;41.63;;;27.00;;
59790;SDS011;47431;51.640;5.554;2023-11-21T06:05:19;48.55;;;26.17;;
59790;SDS011;47431;51.640;5.554;2023-11-21T06:07:45;44.70;;;26.73;;
59790;SDS011;47431;51.640;5.554;2023-11-21T06:10:11;44.10;;;27.95;;
59790;SDS011;47431;51.640;5.554;2023-11-21T06:12:40;43.30;;;27.90;;
59790;SDS011;47431;51.640;5.554;2023-11-21T06:15:07;46.58;;;31.00;;
59790;SDS011;47431;51.640;5.554;2023-11-21T06:17:34;45.67;;;29.52;;
59790;SDS011;47431;51.640;5.554;2023-11-21T06:20:05;48.10;;;29.60;;
59790;SDS011;47431;51.640;5.554;2023-11-21T06:22:43;52.78;;;29.55;;
59790;SDS011;47431;51.640;5.554;2023-11-21T06:25:10;50.83;;;30.77;;
59790;SDS011;47431;51.640;5.554;2023-11-21T06:27:38;46.40;;;29.38;;
59790;SDS011;47431;51.640;5.554;2023-11-21T06:30:08;48.33;;;30.77;;
59790;SDS011;47431;51.640;5.554;2023-11-21T06:32:34;51.30;;;29.98;;
59790;SDS011;47431;51.640;5.554;2023-11-21T06:35:04;55.88;;;31.83;;
59790;SDS011;47431;51.640;5.554;2023-11-21T06:37:30;53.17;;;30.20;;
59790;SDS011;47431;51.640;5.554;2023-11-21T06:39:57;52.78;;;30.10;;
59790;SDS011;47431;51.640;5.554;2023-11-21T06:42:23;44.72;;;28.95;;
59790;SDS011;47431;51.640;5.554;2023-11-21T06:44:49;55.35;;;31.33;;
59790;SDS011;47431;51.640;5.554;2023-11-21T06:47:19;50.88;;;31.35;;
59790;SDS011;47431;51.640;5.554;2023-11-21T06:49:50;54.95;;;31.55;;
59790;SDS011;47431;51.640;5.554;2023-11-21T06:52:16;61.20;;;34.33;;
59790;SDS011;47431;51.640;5.554;2023-11-21T06:54:42;54.47;;;33.70;;
59790;SDS011;47431;51.640;5.554;2023-11-21T06:57:07;64.30;;;32.78;;
59790;SDS011;47431;51.640;5.554;2023-11-21T06:59:33;66.88;;;34.72;;
59790;SDS011;47431;51.640;5.554;2023-11-21T07:01:58;69.70;;;35.42;;
59790;SDS011;47431;51.640;5.554;2023-11-21T07:04:24;58.95;;;32.72;;
59790;SDS011;47431;51.640;5.554;2023-11-21T07:06:50;61.25;;;35.72;;
59790;SDS011;47431;51.640;5.554;2023-11-21T07:09:16;63.95;;;32.75;;
59790;SDS011;47431;51.640;5.554;2023-11-21T07:11:42;59.08;;;31.40;;
59790;SDS011;47431;51.640;5.554;2023-11-21T07:14:07;65.28;;;33.40;;
59790;SDS011;47431;51.640;5.554;2023-11-21T07:16:36;54.17;;;31.23;;
59790;SDS011;47431;51.640;5.554;2023-11-21T07:19:09;64.75;;;34.08;;
59790;SDS011;47431;51.640;5.554;2023-11-21T07:21:34;74.47;;;32.47;;
59790;SDS011;47431;51.640;5.554;2023-11-21T07:24:01;81.20;;;35.78;;
59790;SDS011;47431;51.640;5.554;2023-11-21T07:26:27;77.57;;;35.75;;
59790;SDS011;47431;51.640;5.554;2023-11-21T07:28:53;70.45;;;35.53;;
59790;SDS011;47431;51.640;5.554;2023-11-21T07:31:19;79.35;;;36.40;;
59790;SDS011;47431;51.640;5.554;2023-11-21T07:33:44;80.57;;;36.90;;
59790;SDS011;47431;51.640;5.554;2023-11-21T07:36:13;67.63;;;33.42;;
59790;SDS011;47431;51.640;5.554;2023-11-21T07:38:39;60.63;;;33.33;;
59790;SDS011;47431;51.640;5.554;2023-11-21T07:41:05;70.43;;;34.00;;
59790;SDS011;47431;51.640;5.554;2023-11-21T07:43:32;75.70;;;34.78;;
59790;SDS011;47431;51.640;5.554;2023-11-21T07:46:03;70.55;;;33.58;;
59790;SDS011;47431;51.640;5.554;2023-11-21T07:48:30;69.65;;;33.28;;
59790;SDS011;47431;51.640;5.554;2023-11-21T07:50:56;74.40;;;33.88;;
59790;SDS011;47431;51.640;5.554;2023-11-21T07:53:23;76.05;;;33.15;;
59790;SDS011;47431;51.640;5.554;2023-11-21T07:55:50;61.45;;;30.65;;
59790;SDS011;47431;51.640;5.554;2023-11-21T07:58:15;70.30;;;32.03;;
59790;SDS011;47431;51.640;5.554;2023-11-21T08:00:41;63.13;;;33.03;;
59790;SDS011;47431;51.640;5.554;2023-11-21T08:03:07;61.42;;;31.42;;
59790;SDS011;47431;51.640;5.554;2023-11-21T08:05:32;53.03;;;29.60;;
59790;SDS011;47431;51.640;5.554;2023-11-21T08:07:58;64.55;;;31.65;;
59790;SDS011;47431;51.640;5.554;2023-11-21T08:10:23;67.78;;;31.33;;
59790;SDS011;47431;51.640;5.554;2023-11-21T08:12:48;66.60;;;30.73;;
59790;SDS011;47431;51.640;5.554;2023-11-21T08:15:15;68.43;;;31.13;;
59790;SDS011;47431;51.640;5.554;2023-11-21T08:17:41;55.33;;;30.35;;
59790;SDS011;47431;51.640;5.554;2023-11-21T08:20:06;71.03;;;33.95;;
59790;SDS011;47431;51.640;5.554;2023-11-21T08:22:33;68.43;;;32.03;;
59790;SDS011;47431;51.640;5.554;2023-11-21T08:24:59;67.47;;;32.42;;
59790;SDS011;47431;51.640;5.554;2023-11-21T08:27:24;65.75;;;30.83;;
59790;SDS011;47431;51.640;5.554;2023-11-21T08:29:50;66.85;;;31.08;;
59790;SDS011;47431;51.640;5.554;2023-11-21T08:32:17;66.97;;;32.97;;
59790;SDS011;47431;51.640;5.554;2023-11-21T08:34:43;90.07;;;35.67;;
59790;SDS011;47431;51.640;5.554;2023-11-21T08:37:09;69.45;;;30.42;;
59790;SDS011;47431;51.640;5.554;2023-11-21T08:39:36;68.72;;;33.78;;
59790;SDS011;47431;51.640;5.554;2023-11-21T08:42:02;70.78;;;30.73;;
59790;SDS011;47431;51.640;5.554;2023-11-21T08:44:28;77.30;;;33.63;;
59790;SDS011;47431;51.640;5.554;2023-11-21T08:46:55;83.22;;;30.45;;
59790;SDS011;47431;51.640;5.554;2023-11-21T08:49:21;76.32;;;33.63;;
59790;SDS011;47431;51.640;5.554;2023-11-21T08:51:46;68.97;;;30.83;;
59790;SDS011;47431;51.640;5.554;2023-11-21T08:54:11;84.30;;;33.15;;
59790;SDS011;47431;51.640;5.554;2023-11-21T08:56:37;77.70;;;33.35;;
59790;SDS011;47431;51.640;5.554;2023-11-21T08:59:02;78.28;;;34.50;;
59790;SDS011;47431;51.640;5.554;2023-11-21T09:01:28;82.20;;;34.63;;
59790;SDS011;47431;51.640;5.554;2023-11-21T09:03:57;84.93;;;34.70;;
59790;SDS011;47431;51.640;5.554;2023-11-21T09:06:23;70.60;;;33.83;;
59790;SDS011;47431;51.640;5.554;2023-11-21T09:08:49;94.82;;;37.90;;
59790;SDS011;47431;51.640;5.554;2023-11-21T09:11:14;93.13;;;37.75;;
59790;SDS011;47431;51.640;5.554;2023-11-21T09:13:39;101.72;;;36.25;;
59790;SDS011;47431;51.640;5.554;2023-11-21T09:16:05;94.47;;;36.45;;
59790;SDS011;47431;51.640;5.554;2023-11-21T09:18:31;102.28;;;38.00;;
59790;SDS011;47431;51.640;5.554;2023-11-21T09:20:56;86.07;;;36.83;;
59790;SDS011;47431;51.640;5.554;2023-11-21T09:23:22;103.03;;;38.13;;
59790;SDS011;47431;51.640;5.554;2023-11-21T09:25:47;102.70;;;40.13;;
59790;SDS011;47431;51.640;5.554;2023-11-21T09:28:15;83.05;;;37.50;;
59790;SDS011;47431;51.640;5.554;2023-11-21T09:30:40;96.10;;;37.05;;
59790;SDS011;47431;51.640;5.554;2023-11-21T09:33:06;99.22;;;36.53;;
59790;SDS011;47431;51.640;5.554;2023-11-21T09:35:31;83.95;;;37.10;;
59790;SDS011;47431;51.640;5.554;2023-11-21T09:37:57;79.45;;;36.38;;
59790;SDS011;47431;51.640;5.554;2023-11-21T09:40:23;88.28;;;36.70;;
59790;SDS011;47431;51.640;5.554;2023-11-21T09:42:57;103.03;;;34.38;;
59790;SDS011;47431;51.640;5.554;2023-11-21T09:45:27;89.20;;;33.88;;
59790;SDS011;47431;51.640;5.554;2023-11-21T09:47:57;83.95;;;35.30;;
59790;SDS011;47431;51.640;5.554;2023-11-21T09:50:23;76.43;;;34.17;;
59790;SDS011;47431;51.640;5.554;2023-11-21T09:55:44;84.07;;;33.85;;
59790;SDS011;47431;51.640;5.554;2023-11-21T09:58:11;97.72;;;39.08;;
59790;SDS011;47431;51.640;5.554;2023-11-21T10:00:41;83.60;;;34.65;;
59790;SDS011;47431;51.640;5.554;2023-11-21T10:03:11;86.22;;;36.40;;
59790;SDS011;47431;51.640;5.554;2023-11-21T10:05:38;78.55;;;32.25;;
59790;SDS011;47431;51.640;5.554;2023-11-21T10:08:04;104.80;;;37.78;;
59790;SDS011;47431;51.640;5.554;2023-11-21T10:10:35;88.68;;;35.55;;
59790;SDS011;47431;51.640;5.554;2023-11-21T10:13:02;99.53;;;37.72;;
59790;SDS011;47431;51.640;5.554;2023-11-21T10:15:31;88.55;;;35.92;;
59790;SDS011;47431;51.640;5.554;2023-11-21T10:17:59;92.57;;;35.78;;
59790;SDS011;47431;51.640;5.554;2023-11-21T10:20:28;82.53;;;37.08;;
59790;SDS011;47431;51.640;5.554;2023-11-21T10:22:54;68.47;;;31.55;;
59790;SDS011;47431;51.640;5.554;2023-11-21T10:25:21;71.47;;;33.05;;
59790;SDS011;47431;51.640;5.554;2023-11-21T10:27:47;76.90;;;34.05;;
59790;SDS011;47431;51.640;5.554;2023-11-21T10:30:17;70.07;;;31.67;;
59790;SDS011;47431;51.640;5.554;2023-11-21T10:32:43;86.85;;;33.15;;
59790;SDS011;47431;51.640;5.554;2023-11-21T10:35:09;79.07;;;33.38;;
59790;SDS011;47431;51.640;5.554;2023-11-21T10:37:39;82.40;;;33.58;;
59790;SDS011;47431;51.640;5.554;2023-11-21T10:40:06;83.68;;;34.35;;
59790;SDS011;47431;51.640;5.554;2023-11-21T10:42:32;81.82;;;35.10;;
59790;SDS011;47431;51.640;5.554;2023-11-21T10:44:58;89.00;;;36.70;;
59790;SDS011;47431;51.640;5.554;2023-11-21T10:47:23;72.95;;;33.30;;
59790;SDS011;47431;51.640;5.554;2023-11-21T10:49:49;90.45;;;38.30;;
59790;SDS011;47431;51.640;5.554;2023-11-21T10:52:15;74.20;;;32.67;;
59790;SDS011;47431;51.640;5.554;2023-11-21T10:54:43;73.60;;;36.83;;
59790;SDS011;47431;51.640;5.554;2023-11-21T10:57:09;85.63;;;36.97;;
59790;SDS011;47431;51.640;5.554;2023-11-21T10:59:35;74.85;;;36.33;;
59790;SDS011;47431;51.640;5.554;2023-11-21T11:02:02;74.57;;;38.85;;
59790;SDS011;47431;51.640;5.554;2023-11-21T11:04:46;61.08;;;33.15;;
59790;SDS011;47431;51.640;5.554;2023-11-21T11:07:13;63.40;;;29.20;;
59790;SDS011;47431;51.640;5.554;2023-11-21T11:09:41;60.33;;;26.42;;
59790;SDS011;47431;51.640;5.554;2023-11-21T11:12:06;37.72;;;23.77;;
59790;SDS011;47431;51.640;5.554;2023-11-21T11:14:34;43.55;;;24.42;;
59790;SDS011;47431;51.640;5.554;2023-11-21T11:17:01;45.88;;;24.63;;
59790;SDS011;47431;51.640;5.554;2023-11-21T11:19:27;43.70;;;25.55;;
59790;SDS011;47431;51.640;5.554;2023-11-21T11:35:34;38.75;;;22.92;;
59790;SDS011;47431;51.640;5.554;2023-11-21T11:38:07;37.88;;;23.30;;
59790;SDS011;47431;51.640;5.554;2023-11-21T11:40:40;37.08;;;22.02;;
59790;SDS011;47431;51.640;5.554;2023-11-21T11:43:06;38.78;;;19.75;;
59790;SDS011;47431;51.640;5.554;2023-11-21T11:45:32;37.30;;;19.05;;
59790;SDS011;47431;51.640;5.554;2023-11-21T11:48:00;33.55;;;20.08;;
59790;SDS011;47431;51.640;5.554;2023-11-21T11:50:27;29.27;;;16.70;;
59790;SDS011;47431;51.640;5.554;2023-11-21T11:52:53;25.13;;;16.50;;
59790;SDS011;47431;51.640;5.554;2023-11-21T11:55:23;33.40;;;17.25;;
59790;SDS011;47431;51.640;5.554;2023-11-21T11:57:53;22.80;;;15.02;;
59790;SDS011;47431;51.640;5.554;2023-11-21T12:02:52;25.90;;;15.70;;
59790;SDS011;47431;51.640;5.554;2023-11-21T12:05:36;28.88;;;15.55;;
59790;SDS011;47431;51.640;5.554;2023-11-21T12:08:06;24.77;;;16.65;;
59790;SDS011;47431;51.640;5.554;2023-11-21T12:10:32;27.02;;;15.80;;
59790;SDS011;47431;51.640;5.554;2023-11-21T12:13:03;31.45;;;18.63;;
59790;SDS011;47431;51.640;5.554;2023-11-21T12:15:35;28.25;;;17.73;;
59790;SDS011;47431;51.640;5.554;2023-11-21T12:18:01;32.75;;;19.10;;
59790;SDS011;47431;51.640;5.554;2023-11-21T12:20:27;36.88;;;22.20;;
59790;SDS011;47431;51.640;5.554;2023-11-21T12:22:54;37.70;;;21.30;;
59790;SDS011;47431;51.640;5.554;2023-11-21T12:25:27;30.65;;;20.10;;
59790;SDS011;47431;51.640;5.554;2023-11-21T12:27:59;43.70;;;22.85;;
59790;SDS011;47431;51.640;5.554;2023-11-21T12:30:26;41.42;;;23.27;;
59790;SDS011;47431;51.640;5.554;2023-11-21T12:33:01;36.78;;;21.73;;
59790;SDS011;47431;51.640;5.554;2023-11-21T12:35:31;34.55;;;22.15;;
59790;SDS011;47431;51.640;5.554;2023-11-21T12:38:01;30.45;;;20.15;;
59790;SDS011;47431;51.640;5.554;2023-11-21T12:40:28;36.63;;;22.75;;
59790;SDS011;47431;51.640;5.554;2023-11-21T12:42:57;43.92;;;23.25;;
59790;SDS011;47431;51.640;5.554;2023-11-21T12:45:25;41.65;;;22.40;;
59790;SDS011;47431;51.640;5.554;2023-11-21T12:48:02;39.15;;;24.92;;
59790;SDS011;47431;51.640;5.554;2023-11-21T12:50:32;42.22;;;23.15;;
59790;SDS011;47431;51.640;5.554;2023-11-21T12:53:01;36.85;;;21.85;;
59790;SDS011;47431;51.640;5.554;2023-11-21T12:55:32;37.45;;;22.00;;
59790;SDS011;47431;51.640;5.554;2023-11-21T12:57:59;42.88;;;27.83;;
59790;SDS011;47431;51.640;5.554;2023-11-21T13:00:34;49.92;;;31.13;;
59790;SDS011;47431;51.640;5.554;2023-11-21T13:03:02;40.85;;;25.08;;
59790;SDS011;47431;51.640;5.554;2023-11-21T13:05:30;43.20;;;26.05;;
59790;SDS011;47431;51.640;5.554;2023-11-21T13:07:58;44.45;;;26.48;;
59790;SDS011;47431;51.640;5.554;2023-11-21T13:10:28;38.45;;;22.40;;
59790;SDS011;47431;51.640;5.554;2023-11-21T13:12:59;35.75;;;21.98;;
59790;SDS011;47431;51.640;5.554;2023-11-21T13:15:29;60.28;;;40.58;;
59790;SDS011;47431;51.640;5.554;2023-11-21T13:17:56;40.42;;;22.20;;
59790;SDS011;47431;51.640;5.554;2023-11-21T13:20:23;34.40;;;20.73;;
59790;SDS011;47431;51.640;5.554;2023-11-21T13:22:53;39.70;;;22.13;;
59790;SDS011;47431;51.640;5.554;2023-11-21T13:25:22;44.55;;;20.45;;
59790;SDS011;47431;51.640;5.554;2023-11-21T13:27:48;36.55;;;22.15;;
59790;SDS011;47431;51.640;5.554;2023-11-21T13:30:15;35.58;;;22.65;;
59790;SDS011;47431;51.640;5.554;2023-11-21T13:32:44;35.45;;;20.98;;
59790;SDS011;47431;51.640;5.554;2023-11-21T13:35:16;35.90;;;22.50;;
59790;SDS011;47431;51.640;5.554;2023-11-21T13:37:55;32.00;;;20.17;;
59790;SDS011;47431;51.640;5.554;2023-11-21T13:40:25;33.00;;;21.52;;
59790;SDS011;47431;51.640;5.554;2023-11-21T13:42:55;32.83;;;20.95;;
59790;SDS011;47431;51.640;5.554;2023-11-21T13:45:24;27.40;;;17.75;;
59790;SDS011;47431;51.640;5.554;2023-11-21T13:47:51;30.88;;;19.90;;
59790;SDS011;47431;51.640;5.554;2023-11-21T13:50:20;30.35;;;20.77;;
59790;SDS011;47431;51.640;5.554;2023-11-21T13:52:49;30.70;;;20.00;;
59790;SDS011;47431;51.640;5.554;2023-11-21T13:55:19;30.77;;;18.73;;
59790;SDS011;47431;51.640;5.554;2023-11-21T13:57:45;36.25;;;20.42;;
59790;SDS011;47431;51.640;5.554;2023-11-21T14:00:14;32.10;;;19.25;;
59790;SDS011;47431;51.640;5.554;2023-11-21T14:03:00;35.75;;;19.00;;
59790;SDS011;47431;51.640;5.554;2023-11-21T14:05:29;31.85;;;18.85;;
59790;SDS011;47431;51.640;5.554;2023-11-21T14:07:56;25.35;;;15.65;;
59790;SDS011;47431;51.640;5.554;2023-11-21T14:10:28;24.07;;;15.90;;
59790;SDS011;47431;51.640;5.554;2023-11-21T14:13:08;25.20;;;15.38;;
59790;SDS011;47431;51.640;5.554;2023-11-21T14:15:37;26.83;;;15.50;;
59790;SDS011;47431;51.640;5.554;2023-11-21T14:18:07;31.65;;;15.85;;
59790;SDS011;47431;51.640;5.554;2023-11-21T14:20:35;26.85;;;14.68;;
59790;SDS011;47431;51.640;5.554;2023-11-21T14:23:04;26.70;;;14.02;;
59790;SDS011;47431;51.640;5.554;2023-11-21T14:25:34;22.08;;;12.13;;
59790;SDS011;47431;51.640;5.554;2023-11-21T14:28:05;23.73;;;11.77;;
59790;SDS011;47431;51.640;5.554;2023-11-21T14:30:31;15.43;;;10.57;;
59790;SDS011;47431;51.640;5.554;2023-11-21T14:32:59;19.45;;;11.05;;
59790;SDS011;47431;51.640;5.554;2023-11-21T14:35:24;17.42;;;11.45;;
59790;SDS011;47431;51.640;5.554;2023-11-21T14:37:51;21.20;;;12.75;;